createdAt,value
2019-01-29T11:51:06.016Z,36864.00
2019-01-29T11:52:05.566Z,38752.00
2019-01-29T11:53:05.573Z,24128.00
2019-01-29T11:54:05.578Z,8724.00
2019-01-29T11:55:05.637Z,24928.00
2019-01-29T11:56:05.585Z,36608.00
2019-01-29T11:57:05.600Z,11132.00
2019-01-29T11:58:05.607Z,32512.00
2019-01-29T11:59:05.633Z,41216.00
2019-01-29T12:00:05.627Z,19296.00
2019-01-29T12:01:05.617Z,21088.00
2019-01-29T12:02:05.635Z,36768.00
2019-01-29T12:03:05.641Z,25856.00
2019-01-29T12:04:05.641Z,11424.00
2019-01-29T12:05:05.645Z,12416.00
2019-01-29T12:06:05.667Z,30656.00
2019-01-29T12:07:05.739Z,41536.00
2019-01-29T12:08:05.691Z,21440.00
2019-01-29T12:09:05.676Z,38336.00
2019-01-29T12:10:05.681Z,6688.00
2019-01-29T12:11:05.705Z,6228.00
2019-01-29T12:12:05.709Z,5184.00
2019-01-29T12:13:05.717Z,4152.00
2019-01-29T12:14:05.708Z,3792.00
2019-01-29T12:15:05.735Z,4792.00
2019-01-29T12:16:05.740Z,30784.00
2019-01-29T12:17:05.741Z,23424.00
2019-01-29T12:18:05.769Z,36192.00
2019-01-29T12:19:05.865Z,48224.00
2019-01-29T12:20:05.773Z,40288.00
2019-01-29T12:21:05.822Z,49504.00
2019-01-29T12:22:05.766Z,49120.00
2019-01-29T12:23:05.773Z,13028.00
2019-01-29T12:24:05.789Z,12552.00
2019-01-29T12:25:05.803Z,15856.00
2019-01-29T12:26:13.073Z,12172.00
2019-01-29T12:27:05.818Z,9640.00
2019-01-29T12:28:05.825Z,11248.00
2019-01-29T12:29:05.833Z,14088.00
2019-01-29T12:30:05.841Z,8672.00
2019-01-29T12:31:05.864Z,8408.00
2019-01-29T12:32:05.855Z,8948.00
2019-01-29T12:33:05.860Z,9392.00
2019-01-29T12:34:05.877Z,9160.00
2019-01-29T12:35:05.877Z,9552.00
2019-01-29T12:36:05.890Z,10080.00
2019-01-29T12:37:05.949Z,36256.00
2019-01-29T12:38:05.923Z,15792.00
2019-01-29T12:39:05.904Z,14496.00
2019-01-29T12:40:06.036Z,25856.00
2019-01-29T12:41:05.917Z,20160.00
2019-01-29T12:42:05.929Z,25248.00
2019-01-29T12:43:05.939Z,28960.00
2019-01-29T12:44:05.919Z,27648.00
2019-01-29T12:45:05.943Z,18368.00
2019-01-29T12:46:05.943Z,7584.00
2019-01-29T12:47:05.962Z,10556.00
2019-01-29T12:48:05.973Z,11760.00
2019-01-29T12:49:05.971Z,5840.00
2019-01-29T12:50:06.018Z,4984.00
2019-01-29T12:51:05.986Z,4892.00
2019-01-29T12:52:06.004Z,5468.00
2019-01-29T12:53:06.001Z,5716.00
2019-01-29T12:54:06.012Z,6692.00
2019-01-29T12:55:06.071Z,8224.00
2019-01-29T12:56:06.022Z,32160.00
2019-01-29T12:57:06.064Z,17888.00
2019-01-29T12:58:06.026Z,40128.00
2019-01-29T12:59:06.048Z,14600.00
2019-01-29T13:00:06.045Z,10992.00
2019-01-29T13:01:06.041Z,8624.00
2019-01-29T13:02:06.078Z,11152.00
2019-01-29T13:03:06.117Z,10784.00
2019-01-29T13:04:06.092Z,7292.00
2019-01-29T13:05:06.078Z,6388.00
2019-01-29T13:06:06.088Z,5808.00
2019-01-29T13:07:06.091Z,5248.00
2019-01-29T13:08:06.097Z,5248.00
2019-01-29T13:09:06.241Z,4396.00
2019-01-29T13:10:06.122Z,4060.00
2019-01-29T13:11:06.124Z,4956.00
2019-01-29T13:12:06.125Z,24672.00
2019-01-29T13:13:06.134Z,20064.00
2019-01-29T13:14:06.135Z,11600.00
2019-01-29T13:15:06.138Z,11744.00
2019-01-29T13:16:06.158Z,12560.00
2019-01-29T13:17:06.196Z,7104.00
2019-01-29T13:18:06.161Z,6776.00
2019-01-29T13:19:06.188Z,6232.00
2019-01-29T13:20:06.162Z,5536.00
2019-01-29T13:21:06.176Z,4924.00
2019-01-29T13:22:06.177Z,4324.00
2019-01-29T13:23:06.190Z,4000.00
2019-01-29T13:24:06.193Z,3928.00
2019-01-29T13:25:06.196Z,4388.00
2019-01-29T13:26:06.204Z,4880.00
2019-01-29T13:27:06.222Z,4848.00
2019-01-29T13:28:06.214Z,4484.00
2019-01-29T13:29:06.225Z,4136.00
2019-01-29T13:30:06.231Z,3688.00
2019-01-29T13:31:06.247Z,3184.00
2019-01-29T13:32:06.236Z,2832.00
2019-01-29T13:33:06.241Z,2664.00
2019-01-29T13:34:06.251Z,2560.00
2019-01-29T13:35:06.257Z,2636.00
2019-01-29T13:36:06.257Z,2864.00
2019-01-29T13:37:06.260Z,2992.00
2019-01-29T13:38:06.271Z,3120.00
2019-01-29T13:39:06.265Z,3312.00
2019-01-29T13:40:06.269Z,2992.00
2019-01-29T13:41:06.280Z,2828.00
2019-01-29T13:42:06.284Z,2848.00
2019-01-29T13:44:06.286Z,3360.00
2019-01-29T13:45:06.289Z,3664.00
2019-01-29T13:46:06.297Z,3916.00
2019-01-29T13:47:06.301Z,4188.00
2019-01-29T13:48:06.320Z,4248.00
2019-01-29T13:49:06.312Z,7724.00
2019-01-29T13:50:06.314Z,5592.00
2019-01-29T13:51:06.319Z,6580.00
2019-01-29T13:52:06.332Z,18048.00
2019-01-29T13:53:06.326Z,22912.00
2019-01-29T13:54:06.327Z,10228.00
2019-01-29T13:55:06.354Z,9564.00
2019-01-29T13:56:06.339Z,11904.00
2019-01-29T13:57:06.368Z,25440.00
2019-01-29T13:58:06.364Z,23008.00
2019-01-29T13:59:06.349Z,18688.00
2019-01-29T14:00:06.370Z,20544.00
2019-01-29T14:01:06.404Z,18816.00
2019-01-29T14:02:06.422Z,20768.00
2019-01-29T14:03:06.382Z,22720.00
2019-01-29T14:04:06.650Z,14384.00
2019-01-29T14:05:06.407Z,5672.00
2019-01-29T14:06:06.412Z,5576.00
2019-01-29T14:07:06.408Z,8480.00
2019-01-29T14:08:06.432Z,24288.00
2019-01-29T14:09:06.482Z,23872.00
2019-01-29T14:10:06.465Z,24896.00
2019-01-29T14:11:06.448Z,23232.00
2019-01-29T14:12:06.434Z,8632.00
2019-01-29T14:13:06.490Z,13648.00
2019-01-29T14:14:06.467Z,6672.00
2019-01-29T14:15:06.467Z,13232.00
2019-01-29T14:16:06.469Z,18176.00
2019-01-29T14:17:06.475Z,12828.00
2019-01-29T14:18:06.513Z,6320.00
2019-01-29T14:19:06.560Z,6184.00
2019-01-29T14:20:06.511Z,5740.00
2019-01-29T14:21:06.506Z,5384.00
2019-01-29T14:22:06.539Z,5088.00
2019-01-29T14:23:06.586Z,5208.00
2019-01-29T14:24:06.589Z,7060.00
2019-01-29T14:25:06.597Z,11164.00
2019-01-29T14:26:06.521Z,6272.00
2019-01-29T14:27:06.540Z,5836.00
2019-01-29T14:28:06.566Z,5232.00
2019-01-29T14:29:06.559Z,5348.00
2019-01-29T14:30:06.579Z,5916.00
2019-01-29T14:31:06.565Z,5272.00
2019-01-29T14:32:06.558Z,4640.00
2019-01-29T14:33:06.581Z,4220.00
2019-01-29T14:34:06.586Z,3984.00
2019-01-29T14:35:06.597Z,3836.00
2019-01-29T14:36:06.591Z,3752.00
2019-01-29T14:37:06.598Z,3748.00
2019-01-29T14:38:06.604Z,3684.00
2019-01-29T14:39:06.594Z,3692.00
2019-01-29T14:40:06.607Z,3656.00
2019-01-29T14:41:06.615Z,3788.00
2019-01-29T14:42:06.606Z,3756.00
2019-01-29T14:43:06.628Z,3564.00
2019-01-29T14:44:06.617Z,3424.00
2019-01-29T14:45:06.619Z,3348.00
2019-01-29T14:46:06.622Z,3384.00
2019-01-29T14:47:06.696Z,2936.00
2019-01-29T14:48:06.629Z,2776.00
2019-01-29T14:49:06.745Z,2624.00
2019-01-29T14:50:06.638Z,2432.00
2019-01-29T14:51:06.642Z,2352.00
2019-01-29T14:52:06.650Z,2288.00
2019-01-29T14:53:06.659Z,2316.00
2019-01-29T14:54:06.690Z,2364.00
2019-01-29T14:55:06.849Z,2420.00
2019-01-29T14:56:06.684Z,2452.00
2019-01-29T14:57:06.680Z,2432.00
2019-01-29T14:58:06.695Z,2416.00
2019-01-29T14:59:06.688Z,2460.00
2019-01-29T15:00:06.699Z,2604.00
2019-01-29T15:01:06.718Z,2784.00
2019-01-29T15:02:06.754Z,2936.00
2019-01-29T15:03:06.719Z,2932.00
2019-01-29T15:04:06.714Z,2820.00
2019-01-29T15:05:06.702Z,2692.00
2019-01-29T15:06:06.705Z,2588.00
2019-01-29T15:07:06.718Z,2476.00
2019-01-29T15:08:06.708Z,2420.00
2019-01-29T15:09:06.715Z,2392.00
2019-01-29T15:10:06.720Z,2352.00
2019-01-29T15:11:06.739Z,2264.00
2019-01-29T15:12:06.724Z,2132.00
2019-01-29T15:14:06.729Z,1784.00
2019-01-29T15:15:06.746Z,1652.00
2019-01-29T15:16:06.739Z,1500.00
2019-01-29T15:17:06.745Z,1364.00
2019-01-29T15:18:06.760Z,1248.00
2019-01-29T15:19:06.748Z,1056.00
2019-01-29T15:20:06.748Z,932.00
2019-01-29T15:22:06.763Z,792.00
2019-01-29T15:23:06.773Z,760.00
2019-01-29T15:24:06.760Z,740.00
2019-01-29T15:25:06.778Z,708.00
2019-01-29T15:26:06.773Z,664.00
2019-01-29T15:27:06.783Z,624.00
2019-01-29T15:28:06.781Z,588.00
2019-01-29T15:29:06.791Z,564.00
2019-01-29T15:30:06.783Z,552.00
2019-01-29T15:32:06.800Z,508.00
2019-01-29T15:33:06.795Z,488.00
2019-01-29T15:34:06.786Z,476.00
2019-01-29T15:35:06.796Z,456.00
2019-01-29T15:36:06.803Z,440.00
2019-01-29T15:37:06.815Z,424.00
2019-01-29T15:38:06.805Z,416.00
2019-01-29T15:39:06.811Z,384.00
2019-01-29T15:40:06.823Z,372.00
2019-01-29T15:41:06.816Z,336.00
2019-01-29T15:42:06.816Z,320.00
2019-01-29T15:43:06.840Z,300.00
2019-01-29T15:44:06.831Z,288.00
2019-01-29T15:45:06.831Z,276.00
2019-01-29T15:46:06.832Z,264.00
2019-01-29T15:47:06.840Z,252.00
2019-01-29T15:48:06.841Z,244.00
2019-01-29T15:49:06.843Z,220.00
2019-01-29T15:50:06.863Z,208.00
2019-01-29T15:51:06.842Z,200.00
2019-01-29T15:52:06.865Z,192.00
2019-01-29T15:53:06.853Z,192.00
2019-01-29T15:54:06.865Z,180.00
2019-01-29T15:55:06.868Z,176.00
2019-01-29T15:56:06.869Z,168.00
2019-01-29T15:57:14.084Z,164.00
2019-01-29T15:58:06.869Z,152.00
2019-01-29T15:59:06.875Z,144.00
2019-01-29T16:00:06.890Z,136.00
2019-01-29T16:01:06.890Z,132.00
2019-01-29T16:02:06.878Z,124.00
2019-01-29T16:03:06.911Z,120.00
2019-01-29T16:04:06.911Z,112.00
2019-01-29T16:05:06.903Z,116.00
2019-01-29T16:06:06.896Z,112.00
2019-01-29T16:07:06.908Z,112.00
2019-01-29T16:08:06.897Z,104.00
2019-01-29T16:09:06.908Z,100.00
2019-01-29T16:10:06.915Z,92.00
2019-01-29T16:11:06.922Z,92.00
2019-01-29T16:12:06.924Z,84.00
2019-01-29T16:13:06.918Z,72.00
2019-01-29T16:14:06.953Z,64.00
2019-01-29T16:15:06.923Z,60.00
2019-01-29T16:16:06.917Z,52.00
2019-01-29T16:17:06.942Z,48.00
2019-01-29T16:18:06.934Z,44.00
2019-01-29T16:19:06.941Z,40.00
2019-01-29T16:20:06.945Z,40.00
2019-01-29T16:21:06.938Z,40.00
2019-01-29T16:22:06.976Z,32.00
2019-01-29T16:23:07.011Z,32.00
2019-01-29T16:24:06.954Z,24.00
2019-01-29T16:25:06.948Z,24.00
2019-01-29T16:26:06.960Z,20.00
2019-01-29T16:27:07.266Z,16.00
2019-01-29T16:28:06.958Z,12.00
2019-01-29T16:29:06.968Z,16.00
2019-01-29T16:31:06.965Z,12.00
2019-01-29T16:32:06.954Z,8.00
2019-01-29T16:33:06.971Z,8.00
2019-01-29T16:34:06.972Z,8.00
2019-01-29T16:35:07.036Z,8.00
2019-01-29T16:36:06.976Z,8.00
2019-01-29T16:37:06.982Z,4.00
2019-01-29T16:38:06.990Z,4.00
2019-01-29T16:39:06.988Z,4.00
2019-01-29T16:40:07.005Z,4.00
2019-01-29T16:41:06.999Z,4.00
2019-01-29T16:42:06.991Z,4.00
2019-01-29T16:43:07.005Z,4.00
2019-01-29T16:44:06.985Z,0.00
2019-01-29T16:45:07.001Z,4.00
2019-01-29T16:46:07.007Z,4.00
2019-01-29T16:47:07.019Z,4.00
2019-01-29T16:48:07.015Z,0.00
2019-01-29T16:49:07.013Z,0.00
2019-01-29T16:50:07.005Z,0.00
2019-01-29T16:51:07.013Z,0.00
2019-01-29T16:52:07.034Z,0.00
2019-01-29T16:53:07.013Z,4.00
2019-01-29T16:54:07.017Z,0.00
2019-01-29T16:55:07.028Z,0.00
2019-01-29T16:56:07.047Z,0.00
2019-01-29T16:57:07.028Z,0.00
2019-01-29T16:58:07.020Z,4.00
2019-01-29T16:59:07.031Z,0.00
2019-01-29T17:00:07.031Z,0.00
2019-01-29T17:01:07.027Z,0.00
2019-01-29T17:02:07.028Z,0.00
2019-01-29T17:03:07.031Z,4.00
2019-01-29T17:04:07.034Z,0.00
2019-01-29T17:05:07.030Z,0.00
2019-01-29T17:06:07.061Z,0.00
2019-01-29T17:07:07.045Z,4.00
2019-01-29T17:08:07.046Z,4.00
2019-01-29T17:09:07.064Z,0.00
2019-01-29T17:10:07.050Z,0.00
2019-01-29T17:11:07.045Z,4.00
2019-01-29T17:12:07.060Z,0.00
2019-01-29T17:13:07.059Z,0.00
2019-01-29T17:14:07.057Z,0.00
2019-01-29T17:15:07.059Z,0.00
2019-01-29T17:16:07.056Z,0.00
2019-01-29T17:17:07.058Z,0.00
2019-01-29T17:18:07.099Z,0.00
2019-01-29T17:19:07.070Z,0.00
2019-01-29T17:20:07.070Z,0.00
2019-01-29T17:21:07.069Z,0.00
2019-01-29T17:22:07.070Z,4.00
2019-01-29T17:23:07.079Z,4.00
2019-01-29T17:24:07.072Z,4.00
2019-01-29T17:25:07.087Z,4.00
2019-01-29T17:26:07.077Z,4.00
2019-01-29T17:27:07.080Z,0.00
2019-01-29T17:28:07.089Z,0.00
2019-01-29T17:29:07.082Z,0.00
2019-01-29T17:30:07.152Z,0.00
2019-01-29T17:31:07.086Z,0.00
2019-01-29T17:32:07.091Z,4.00
2019-01-29T17:33:07.098Z,4.00
2019-01-29T17:34:07.092Z,0.00
2019-01-29T17:35:07.097Z,0.00
2019-01-29T17:36:07.097Z,0.00
2019-01-29T17:37:07.098Z,0.00
2019-01-29T17:38:07.106Z,0.00
2019-01-29T17:39:07.098Z,0.00
2019-01-29T17:40:07.102Z,4.00
2019-01-29T17:41:07.105Z,0.00
2019-01-29T17:42:07.103Z,0.00
2019-01-29T17:43:07.102Z,0.00
2019-01-29T17:44:07.104Z,0.00
2019-01-29T17:45:07.107Z,4.00
2019-01-29T17:46:07.104Z,0.00
2019-01-29T17:47:07.134Z,4.00
2019-01-29T17:48:07.120Z,0.00
2019-01-29T17:49:07.108Z,0.00
2019-01-29T17:50:07.128Z,0.00
2019-01-29T17:51:07.112Z,0.00
2019-01-29T17:52:07.120Z,0.00
2019-01-29T17:53:07.125Z,0.00
2019-01-29T17:54:07.150Z,4.00
2019-01-29T17:55:07.129Z,4.00
2019-01-29T17:56:07.128Z,4.00
2019-01-29T17:57:07.117Z,4.00
2019-01-29T17:58:07.126Z,0.00
2019-01-29T17:59:07.131Z,0.00
2019-01-29T18:00:07.145Z,0.00
2019-01-29T18:01:07.166Z,0.00
2019-01-29T18:02:07.130Z,0.00
2019-01-29T18:03:07.135Z,0.00
2019-01-29T18:04:07.132Z,0.00
2019-01-29T18:05:07.143Z,0.00
2019-01-29T18:06:07.134Z,0.00
2019-01-29T18:07:07.138Z,4.00
2019-01-29T18:08:07.184Z,4.00
2019-01-29T18:09:07.148Z,0.00
2019-01-29T18:10:07.134Z,0.00
2019-01-29T18:11:07.138Z,0.00
2019-01-29T18:12:07.139Z,0.00
2019-01-29T18:13:07.140Z,0.00
2019-01-29T18:14:07.145Z,4.00
2019-01-29T18:15:07.147Z,4.00
2019-01-29T18:16:07.235Z,0.00
2019-01-29T18:17:07.140Z,0.00
2019-01-29T18:18:07.164Z,4.00
2019-01-29T18:19:07.138Z,0.00
2019-01-29T18:20:07.140Z,0.00
2019-01-29T18:21:07.159Z,4.00
2019-01-29T18:22:07.264Z,0.00
2019-01-29T18:23:07.153Z,0.00
2019-01-29T18:24:07.152Z,0.00
2019-01-29T18:25:07.169Z,0.00
2019-01-29T18:26:07.156Z,0.00
2019-01-29T18:27:07.145Z,4.00
2019-01-29T18:28:08.627Z,0.00
2019-01-29T18:29:07.451Z,0.00
2019-01-29T18:30:07.163Z,0.00
2019-01-29T18:31:07.177Z,0.00
2019-01-29T18:32:07.191Z,0.00
2019-01-29T18:33:07.166Z,0.00
2019-01-29T18:34:07.177Z,0.00
2019-01-29T18:35:07.155Z,0.00
2019-01-29T18:36:07.163Z,0.00
2019-01-29T18:37:07.162Z,0.00
2019-01-29T18:38:07.170Z,0.00
2019-01-29T18:39:07.178Z,0.00
2019-01-29T18:40:07.169Z,0.00
2019-01-29T18:41:07.173Z,0.00
2019-01-29T18:42:07.170Z,4.00
2019-01-29T18:43:07.185Z,0.00
2019-01-29T18:44:07.166Z,0.00
2019-01-29T18:45:07.188Z,0.00
2019-01-29T18:46:07.172Z,0.00
2019-01-29T18:47:07.162Z,0.00
2019-01-29T18:48:07.175Z,0.00
2019-01-29T18:49:07.179Z,0.00
2019-01-29T18:50:07.169Z,0.00
2019-01-29T18:51:07.175Z,4.00
2019-01-29T18:52:07.179Z,0.00
2019-01-29T18:53:07.185Z,0.00
2019-01-29T18:54:07.190Z,0.00
2019-01-29T18:55:07.182Z,4.00
2019-01-29T18:56:07.175Z,0.00
2019-01-29T18:57:07.195Z,0.00
2019-01-29T18:58:11.933Z,0.00
2019-01-29T18:59:07.184Z,0.00
2019-01-29T19:00:07.180Z,4.00
2019-01-29T19:01:07.190Z,0.00
2019-01-29T19:02:07.181Z,0.00
2019-01-29T19:03:07.177Z,0.00
2019-01-29T19:04:07.193Z,0.00
2019-01-29T19:05:07.192Z,0.00
2019-01-29T19:06:07.201Z,4.00
2019-01-29T19:07:07.187Z,0.00
2019-01-29T19:08:07.190Z,0.00
2019-01-29T19:09:07.191Z,0.00
2019-01-29T19:10:07.223Z,0.00
2019-01-29T19:11:07.836Z,0.00
2019-01-29T19:12:07.197Z,4.00
2019-01-29T19:13:07.201Z,0.00
2019-01-29T19:14:07.198Z,0.00
2019-01-29T19:15:07.191Z,4.00
2019-01-29T19:16:07.196Z,0.00
2019-01-29T19:17:07.194Z,0.00
2019-01-29T19:18:07.204Z,0.00
2019-01-29T19:19:07.195Z,0.00
2019-01-29T19:20:07.206Z,0.00
2019-01-29T19:21:07.201Z,4.00
2019-01-29T19:22:07.201Z,4.00
2019-01-29T19:23:07.211Z,0.00
2019-01-29T19:24:07.201Z,0.00
2019-01-29T19:25:07.203Z,0.00
2019-01-29T19:26:07.217Z,0.00
2019-01-29T19:28:07.217Z,0.00
2019-01-29T19:29:07.210Z,0.00
2019-01-29T19:30:07.203Z,0.00
2019-01-29T19:31:07.200Z,0.00
2019-01-29T19:32:07.219Z,0.00
2019-01-29T19:33:07.206Z,0.00
2019-01-29T19:34:07.257Z,4.00
2019-01-29T19:35:07.207Z,0.00
2019-01-29T19:36:07.207Z,0.00
2019-01-29T19:37:07.215Z,4.00
2019-01-29T19:38:07.220Z,0.00
2019-01-29T19:39:07.208Z,0.00
2019-01-29T19:40:07.220Z,0.00
2019-01-29T19:41:07.221Z,0.00
2019-01-29T19:42:07.216Z,0.00
2019-01-29T19:43:07.207Z,0.00
2019-01-29T19:44:07.278Z,0.00
2019-01-29T19:45:07.219Z,0.00
2019-01-29T19:46:07.213Z,0.00
2019-01-29T19:47:07.229Z,0.00
2019-01-29T19:48:07.210Z,4.00
2019-01-29T19:49:07.222Z,0.00
2019-01-29T19:50:07.225Z,0.00
2019-01-29T19:51:07.258Z,0.00
2019-01-29T19:52:07.320Z,0.00
2019-01-29T19:53:07.226Z,0.00
2019-01-29T19:54:07.230Z,4.00
2019-01-29T19:55:07.233Z,0.00
2019-01-29T19:56:07.239Z,0.00
2019-01-29T19:57:07.226Z,0.00
2019-01-29T19:58:09.043Z,0.00
2019-01-29T19:59:07.598Z,0.00
2019-01-29T20:00:07.233Z,0.00
2019-01-29T20:01:07.229Z,0.00
2019-01-29T20:02:07.241Z,0.00
2019-01-29T20:03:07.223Z,0.00
2019-01-29T20:04:07.236Z,4.00
2019-01-29T20:05:07.232Z,0.00
2019-01-29T20:06:07.231Z,0.00
2019-01-29T20:07:07.237Z,0.00
2019-01-29T20:08:07.239Z,0.00
2019-01-29T20:09:07.251Z,0.00
2019-01-29T20:10:07.239Z,0.00
2019-01-29T20:11:07.232Z,0.00
2019-01-29T20:12:09.662Z,0.00
2019-01-29T20:13:07.252Z,4.00
2019-01-29T20:14:07.242Z,0.00
2019-01-29T20:15:07.243Z,0.00
2019-01-29T20:16:07.255Z,0.00
2019-01-29T20:17:07.249Z,0.00
2019-01-29T20:18:07.248Z,0.00
2019-01-29T20:19:07.256Z,0.00
2019-01-29T20:20:07.255Z,0.00
2019-01-29T20:21:07.251Z,0.00
2019-01-29T20:22:07.249Z,0.00
2019-01-29T20:23:08.389Z,0.00
2019-01-29T20:24:07.267Z,0.00
2019-01-29T20:25:07.258Z,0.00
2019-01-29T20:26:07.268Z,0.00
2019-01-29T20:27:07.263Z,0.00
2019-01-29T20:28:07.281Z,0.00
2019-01-29T20:29:07.264Z,0.00
2019-01-29T20:30:07.270Z,0.00
2019-01-29T20:31:07.259Z,0.00
2019-01-29T20:32:07.256Z,0.00
2019-01-29T20:33:07.259Z,0.00
2019-01-29T20:34:07.281Z,4.00
2019-01-29T20:35:07.257Z,0.00
2019-01-29T20:36:07.259Z,0.00
2019-01-29T20:37:07.271Z,0.00
2019-01-29T20:38:07.258Z,0.00
2019-01-29T20:39:07.297Z,0.00
2019-01-29T20:40:07.259Z,0.00
2019-01-29T20:41:07.268Z,0.00
2019-01-29T20:42:07.268Z,4.00
2019-01-29T20:43:07.293Z,0.00
2019-01-29T20:44:07.281Z,0.00
2019-01-29T20:45:07.288Z,0.00
2019-01-29T20:46:07.274Z,0.00
2019-01-29T20:47:07.275Z,0.00
2019-01-29T20:48:07.274Z,0.00
2019-01-29T20:49:07.269Z,0.00
2019-01-29T20:50:07.284Z,0.00
2019-01-29T20:51:07.300Z,0.00
2019-01-29T20:52:07.278Z,0.00
2019-01-29T20:53:07.291Z,0.00
2019-01-29T20:54:07.272Z,0.00
2019-01-29T20:55:07.287Z,0.00
2019-01-29T20:56:07.288Z,0.00
2019-01-29T20:57:07.283Z,0.00
2019-01-29T20:58:07.278Z,0.00
2019-01-29T20:59:07.281Z,0.00
2019-01-29T21:00:07.301Z,0.00
2019-01-29T21:01:07.306Z,0.00
2019-01-29T21:02:07.283Z,0.00
2019-01-29T21:03:07.299Z,0.00
2019-01-29T21:04:07.284Z,0.00
2019-01-29T21:05:07.288Z,0.00
2019-01-29T21:06:07.294Z,4.00
2019-01-29T21:07:07.294Z,0.00
2019-01-29T21:08:07.293Z,0.00
2019-01-29T21:09:07.333Z,0.00
2019-01-29T21:10:07.285Z,0.00
2019-01-29T21:11:07.310Z,0.00
2019-01-29T21:12:07.307Z,0.00
2019-01-29T21:13:07.299Z,0.00
2019-01-29T21:14:07.299Z,0.00
2019-01-29T21:15:07.298Z,0.00
2019-01-29T21:16:07.302Z,0.00
2019-01-29T21:17:07.299Z,0.00
2019-01-29T21:18:07.301Z,0.00
2019-01-29T21:19:07.294Z,0.00
2019-01-29T21:20:07.296Z,0.00
2019-01-29T21:21:07.302Z,0.00
2019-01-29T21:22:07.319Z,0.00
2019-01-29T21:23:07.345Z,0.00
2019-01-29T21:24:07.303Z,0.00
2019-01-29T21:25:07.305Z,0.00
2019-01-29T21:26:07.316Z,0.00
2019-01-29T21:27:07.294Z,0.00
2019-01-29T21:28:07.305Z,0.00
2019-01-29T21:29:07.301Z,0.00
2019-01-29T21:30:07.319Z,0.00
2019-01-29T21:31:07.328Z,0.00
2019-01-29T21:32:07.306Z,0.00
2019-01-29T21:33:07.307Z,0.00
2019-01-29T21:34:07.314Z,0.00
2019-01-29T21:35:07.330Z,0.00
2019-01-29T21:36:07.310Z,0.00
2019-01-29T21:37:07.315Z,0.00
2019-01-29T21:38:07.310Z,0.00
2019-01-29T21:39:07.317Z,0.00
2019-01-29T21:40:07.341Z,0.00
2019-01-29T21:41:07.341Z,0.00
2019-01-29T21:42:07.316Z,0.00
2019-01-29T21:43:07.323Z,0.00
2019-01-29T21:44:07.320Z,0.00
2019-01-29T21:45:07.329Z,0.00
2019-01-29T21:46:07.317Z,0.00
2019-01-29T21:47:07.319Z,0.00
2019-01-29T21:48:07.319Z,0.00
2019-01-29T21:49:07.321Z,0.00
2019-01-29T21:50:11.567Z,0.00
2019-01-29T21:51:07.344Z,0.00
2019-01-29T21:52:07.333Z,0.00
2019-01-29T21:53:07.319Z,0.00
2019-01-29T21:54:07.332Z,0.00
2019-01-29T21:55:07.320Z,0.00
2019-01-29T21:56:07.329Z,0.00
2019-01-29T21:57:07.344Z,0.00
2019-01-29T21:58:07.329Z,0.00
2019-01-29T21:59:13.132Z,0.00
2019-01-29T22:00:07.344Z,4.00
2019-01-29T22:01:07.325Z,0.00
2019-01-29T22:02:07.338Z,0.00
2019-01-29T22:03:07.335Z,0.00
2019-01-29T22:04:07.327Z,0.00
2019-01-29T22:05:07.334Z,0.00
2019-01-29T22:06:07.351Z,0.00
2019-01-29T22:07:07.326Z,0.00
2019-01-29T22:08:07.333Z,0.00
2019-01-29T22:09:07.331Z,0.00
2019-01-29T22:10:07.343Z,0.00
2019-01-29T22:11:07.344Z,0.00
2019-01-29T22:12:07.345Z,0.00
2019-01-29T22:13:07.352Z,0.00
2019-01-29T22:14:07.358Z,0.00
2019-01-29T22:15:07.344Z,0.00
2019-01-29T22:16:07.332Z,0.00
2019-01-29T22:17:07.346Z,0.00
2019-01-29T22:19:07.342Z,0.00
2019-01-29T22:20:07.345Z,0.00
2019-01-29T22:21:07.350Z,0.00
2019-01-29T22:22:07.416Z,0.00
2019-01-29T22:23:07.340Z,0.00
2019-01-29T22:24:07.342Z,0.00
2019-01-29T22:25:07.333Z,0.00
2019-01-29T22:26:07.361Z,0.00
2019-01-29T22:27:07.351Z,0.00
2019-01-29T22:28:07.362Z,0.00
2019-01-29T22:29:07.353Z,0.00
2019-01-29T22:30:07.352Z,0.00
2019-01-29T22:31:07.342Z,0.00
2019-01-29T22:32:07.345Z,0.00
2019-01-29T22:33:07.349Z,0.00
2019-01-29T22:34:07.341Z,0.00
2019-01-29T22:35:07.339Z,0.00
2019-01-29T22:36:07.346Z,0.00
2019-01-29T22:37:07.342Z,0.00
2019-01-29T22:38:07.359Z,0.00
2019-01-29T22:39:07.346Z,0.00
2019-01-29T22:40:07.336Z,0.00
2019-01-29T22:41:07.351Z,0.00
2019-01-29T22:42:07.348Z,0.00
2019-01-29T22:43:07.359Z,0.00
2019-01-29T22:44:07.349Z,0.00
2019-01-29T22:45:07.363Z,0.00
2019-01-29T22:46:07.363Z,0.00
2019-01-29T22:47:07.355Z,0.00
2019-01-29T22:48:07.351Z,0.00
2019-01-29T22:49:07.358Z,0.00
2019-01-29T22:50:07.348Z,0.00
2019-01-29T22:51:07.360Z,0.00
2019-01-29T22:52:07.349Z,0.00
2019-01-29T22:53:07.354Z,0.00
2019-01-29T22:54:07.344Z,0.00
2019-01-29T22:55:07.354Z,0.00
2019-01-29T22:56:07.346Z,0.00
2019-01-29T22:57:07.359Z,0.00
2019-01-29T22:58:07.365Z,0.00
2019-01-29T22:59:07.361Z,0.00
2019-01-29T23:00:07.359Z,0.00
2019-01-29T23:01:07.361Z,0.00
2019-01-29T23:02:07.355Z,0.00
2019-01-29T23:03:07.357Z,0.00
2019-01-29T23:04:07.364Z,0.00
2019-01-29T23:05:07.362Z,0.00
2019-01-29T23:06:07.360Z,0.00
2019-01-29T23:07:07.360Z,0.00
2019-01-29T23:08:07.371Z,0.00
2019-01-29T23:09:07.349Z,0.00
2019-01-29T23:10:07.354Z,0.00
2019-01-29T23:11:07.361Z,0.00
2019-01-29T23:12:07.361Z,0.00
2019-01-29T23:13:07.374Z,0.00
2019-01-29T23:14:07.361Z,0.00
2019-01-29T23:15:07.413Z,0.00
2019-01-29T23:16:07.362Z,0.00
2019-01-29T23:17:07.373Z,0.00
2019-01-29T23:18:07.352Z,0.00
2019-01-29T23:19:07.370Z,0.00
2019-01-29T23:20:07.359Z,0.00
2019-01-29T23:21:07.363Z,0.00
2019-01-29T23:22:07.354Z,0.00
2019-01-29T23:23:07.365Z,0.00
2019-01-29T23:24:07.365Z,0.00
2019-01-29T23:25:07.361Z,0.00
2019-01-29T23:26:07.352Z,0.00
2019-01-29T23:27:07.365Z,0.00
2019-01-29T23:28:07.361Z,0.00
2019-01-29T23:29:07.358Z,0.00
2019-01-29T23:30:07.372Z,0.00
2019-01-29T23:31:07.366Z,0.00
2019-01-29T23:32:07.353Z,0.00
2019-01-29T23:33:07.355Z,0.00
2019-01-29T23:34:07.365Z,0.00
2019-01-29T23:35:07.387Z,0.00
2019-01-29T23:36:07.354Z,0.00
2019-01-29T23:37:07.362Z,0.00
2019-01-29T23:38:07.368Z,0.00
2019-01-29T23:39:07.372Z,0.00
2019-01-29T23:40:07.363Z,0.00
2019-01-29T23:41:07.372Z,0.00
2019-01-29T23:42:07.354Z,0.00
2019-01-29T23:43:07.357Z,0.00
2019-01-29T23:44:07.360Z,0.00
2019-01-29T23:45:07.365Z,0.00
2019-01-29T23:46:07.365Z,0.00
2019-01-29T23:47:07.491Z,0.00
2019-01-29T23:48:07.370Z,0.00
2019-01-29T23:49:07.363Z,0.00
2019-01-29T23:50:07.395Z,0.00
2019-01-29T23:51:07.370Z,0.00
2019-01-29T23:52:07.363Z,0.00
2019-01-29T23:53:07.366Z,0.00
2019-01-29T23:54:07.358Z,0.00
2019-01-29T23:55:07.365Z,0.00
2019-01-29T23:56:07.359Z,0.00
2019-01-29T23:57:07.359Z,0.00
2019-01-29T23:58:07.362Z,0.00
2019-01-29T23:59:07.370Z,0.00
